sensor_id;sensor_type;location;lat;lon;timestamp;temperature;humidity
52509;DHT22;38420;53.150;6.370;2023-02-20T00:01:51;6.10;99.90
52509;DHT22;38420;53.150;6.370;2023-02-20T00:04:17;6.00;99.90
52509;DHT22;38420;53.150;6.370;2023-02-20T00:06:42;5.60;99.90
52509;DHT22;38420;53.150;6.370;2023-02-20T00:09:08;6.30;99.90
52509;DHT22;38420;53.150;6.370;2023-02-20T00:11:34;5.90;99.90
52509;DHT22;38420;53.150;6.370;2023-02-20T00:13:59;5.60;99.90
52509;DHT22;38420;53.150;6.370;2023-02-20T00:16:25;6.40;99.90
52509;DHT22;38420;53.150;6.370;2023-02-20T00:18:50;5.70;99.90
52509;DHT22;38420;53.150;6.370;2023-02-20T00:21:16;6.20;99.90
52509;DHT22;38420;53.150;6.370;2023-02-20T00:23:42;6.50;99.90
52509;DHT22;38420;53.150;6.370;2023-02-20T00:26:09;5.80;99.90
52509;DHT22;38420;53.150;6.370;2023-02-20T00:28:40;6.20;99.90
52509;DHT22;38420;53.150;6.370;2023-02-20T00:31:06;5.90;99.90
52509;DHT22;38420;53.150;6.370;2023-02-20T00:33:32;6.30;99.90
52509;DHT22;38420;53.150;6.370;2023-02-20T00:35:58;5.80;99.90
52509;DHT22;38420;53.150;6.370;2023-02-20T00:38:24;6.00;99.90
52509;DHT22;38420;53.150;6.370;2023-02-20T00:40:50;6.50;99.90
52509;DHT22;38420;53.150;6.370;2023-02-20T00:43:15;5.90;99.90
52509;DHT22;38420;53.150;6.370;2023-02-20T00:45:41;6.40;99.90
52509;DHT22;38420;53.150;6.370;2023-02-20T00:48:07;6.50;99.90
52509;DHT22;38420;53.150;6.370;2023-02-20T00:50:32;6.00;99.90
52509;DHT22;38420;53.150;6.370;2023-02-20T00:52:58;6.50;99.90
52509;DHT22;38420;53.150;6.370;2023-02-20T00:55:24;6.60;99.90
52509;DHT22;38420;53.150;6.370;2023-02-20T00:57:49;6.60;99.90
52509;DHT22;38420;53.150;6.370;2023-02-20T01:00:27;6.00;99.90
52509;DHT22;38420;53.150;6.370;2023-02-20T01:02:53;6.30;99.90
52509;DHT22;38420;53.150;6.370;2023-02-20T01:05:19;6.60;99.90
52509;DHT22;38420;53.150;6.370;2023-02-20T01:07:45;6.50;99.90
52509;DHT22;38420;53.150;6.370;2023-02-20T01:10:12;6.50;99.90
52509;DHT22;38420;53.150;6.370;2023-02-20T01:12:38;5.90;99.90
52509;DHT22;38420;53.150;6.370;2023-02-20T01:15:06;6.00;99.90
52509;DHT22;38420;53.150;6.370;2023-02-20T01:17:32;6.40;99.90
52509;DHT22;38420;53.150;6.370;2023-02-20T01:19:57;6.50;99.90
52509;DHT22;38420;53.150;6.370;2023-02-20T01:22:23;6.10;99.90
52509;DHT22;38420;53.150;6.370;2023-02-20T01:24:49;6.00;99.90
52509;DHT22;38420;53.150;6.370;2023-02-20T01:27:15;6.10;99.90
52509;DHT22;38420;53.150;6.370;2023-02-20T01:29:41;6.50;99.90
52509;DHT22;38420;53.150;6.370;2023-02-20T01:32:06;6.60;99.90
52509;DHT22;38420;53.150;6.370;2023-02-20T01:34:32;6.20;99.90
52509;DHT22;38420;53.150;6.370;2023-02-20T01:36:57;6.40;99.90
52509;DHT22;38420;53.150;6.370;2023-02-20T01:39:26;6.70;99.90
52509;DHT22;38420;53.150;6.370;2023-02-20T01:41:56;6.70;99.90
52509;DHT22;38420;53.150;6.370;2023-02-20T01:44:26;6.20;99.90
52509;DHT22;38420;53.150;6.370;2023-02-20T01:46:55;6.70;99.90
52509;DHT22;38420;53.150;6.370;2023-02-20T01:49:30;6.80;99.90
52509;DHT22;38420;53.150;6.370;2023-02-20T01:52:08;6.80;99.90
52509;DHT22;38420;53.150;6.370;2023-02-20T01:54:36;6.70;99.90
52509;DHT22;38420;53.150;6.370;2023-02-20T01:57:04;6.90;99.90
52509;DHT22;38420;53.150;6.370;2023-02-20T01:59:34;7.00;99.90
52509;DHT22;38420;53.150;6.370;2023-02-20T02:02:01;7.10;99.90
52509;DHT22;38420;53.150;6.370;2023-02-20T02:04:28;7.10;99.90
52509;DHT22;38420;53.150;6.370;2023-02-20T02:06:54;7.10;99.90
52509;DHT22;38420;53.150;6.370;2023-02-20T02:12:13;7.10;99.90
52509;DHT22;38420;53.150;6.370;2023-02-20T02:14:38;6.80;99.90
52509;DHT22;38420;53.150;6.370;2023-02-20T02:34:25;7.40;99.90
52509;DHT22;38420;53.150;6.370;2023-02-20T02:37:14;6.90;99.90
52509;DHT22;38420;53.150;6.370;2023-02-20T02:42:45;6.90;99.90
52509;DHT22;38420;53.150;6.370;2023-02-20T02:45:31;7.40;99.90
52509;DHT22;38420;53.150;6.370;2023-02-20T02:50:37;6.90;99.90
52509;DHT22;38420;53.150;6.370;2023-02-20T02:53:07;6.90;99.90
52509;DHT22;38420;53.150;6.370;2023-02-20T02:55:33;7.40;99.90
52509;DHT22;38420;53.150;6.370;2023-02-20T02:58:00;6.90;99.90
52509;DHT22;38420;53.150;6.370;2023-02-20T03:00:37;7.50;99.90
52509;DHT22;38420;53.150;6.370;2023-02-20T03:03:12;7.00;99.90
52509;DHT22;38420;53.150;6.370;2023-02-20T03:05:55;6.90;99.90
52509;DHT22;38420;53.150;6.370;2023-02-20T03:08:41;7.10;99.90
52509;DHT22;38420;53.150;6.370;2023-02-20T03:11:11;7.50;99.90
52509;DHT22;38420;53.150;6.370;2023-02-20T03:13:45;6.80;99.90
52509;DHT22;38420;53.150;6.370;2023-02-20T03:19:50;7.10;99.90
52509;DHT22;38420;53.150;6.370;2023-02-20T03:22:30;6.90;99.90
52509;DHT22;38420;53.150;6.370;2023-02-20T03:25:03;6.70;99.90
52509;DHT22;38420;53.150;6.370;2023-02-20T03:27:54;6.90;99.90
52509;DHT22;38420;53.150;6.370;2023-02-20T03:33:23;7.00;99.90
52509;DHT22;38420;53.150;6.370;2023-02-20T03:36:11;7.20;99.90
52509;DHT22;38420;53.150;6.370;2023-02-20T03:39:08;7.60;99.90
52509;DHT22;38420;53.150;6.370;2023-02-20T03:41:55;7.50;99.90
52509;DHT22;38420;53.150;6.370;2023-02-20T03:44:41;6.90;99.90
52509;DHT22;38420;53.150;6.370;2023-02-20T03:47:08;7.30;99.90
52509;DHT22;38420;53.150;6.370;2023-02-20T03:49:38;7.60;99.90
52509;DHT22;38420;53.150;6.370;2023-02-20T03:52:04;6.70;99.90
52509;DHT22;38420;53.150;6.370;2023-02-20T03:54:32;7.40;99.90
52509;DHT22;38420;53.150;6.370;2023-02-20T03:57:11;7.50;99.90
52509;DHT22;38420;53.150;6.370;2023-02-20T03:59:47;7.50;99.90
52509;DHT22;38420;53.150;6.370;2023-02-20T04:02:32;7.00;99.90
52509;DHT22;38420;53.150;6.370;2023-02-20T04:05:03;6.80;99.90
52509;DHT22;38420;53.150;6.370;2023-02-20T04:07:36;7.70;99.90
52509;DHT22;38420;53.150;6.370;2023-02-20T04:10:06;7.80;99.90
52509;DHT22;38420;53.150;6.370;2023-02-20T04:12:38;6.70;99.90
52509;DHT22;38420;53.150;6.370;2023-02-20T04:15:06;7.00;99.90
52509;DHT22;38420;53.150;6.370;2023-02-20T04:17:47;7.70;99.90
52509;DHT22;38420;53.150;6.370;2023-02-20T04:20:14;7.40;99.90
52509;DHT22;38420;53.150;6.370;2023-02-20T04:22:44;6.70;99.90
52509;DHT22;38420;53.150;6.370;2023-02-20T04:25:27;7.20;99.90
52509;DHT22;38420;53.150;6.370;2023-02-20T04:27:58;7.70;99.90
52509;DHT22;38420;53.150;6.370;2023-02-20T04:30:24;6.90;99.90
52509;DHT22;38420;53.150;6.370;2023-02-20T04:32:50;7.00;99.90
52509;DHT22;38420;53.150;6.370;2023-02-20T04:35:17;6.70;99.90
52509;DHT22;38420;53.150;6.370;2023-02-20T04:37:43;7.00;99.90
52509;DHT22;38420;53.150;6.370;2023-02-20T04:40:11;6.70;99.90
52509;DHT22;38420;53.150;6.370;2023-02-20T04:42:36;7.60;99.90
52509;DHT22;38420;53.150;6.370;2023-02-20T04:45:02;7.80;99.90
52509;DHT22;38420;53.150;6.370;2023-02-20T04:47:28;7.40;99.90
52509;DHT22;38420;53.150;6.370;2023-02-20T04:49:54;6.60;99.90
52509;DHT22;38420;53.150;6.370;2023-02-20T04:52:19;6.60;99.90
52509;DHT22;38420;53.150;6.370;2023-02-20T04:54:45;6.90;99.90
52509;DHT22;38420;53.150;6.370;2023-02-20T04:57:10;7.60;99.90
52509;DHT22;38420;53.150;6.370;2023-02-20T04:59:36;6.80;99.90
52509;DHT22;38420;53.150;6.370;2023-02-20T05:02:02;6.60;99.90
52509;DHT22;38420;53.150;6.370;2023-02-20T05:04:27;7.40;99.90
52509;DHT22;38420;53.150;6.370;2023-02-20T05:06:56;7.10;99.90
52509;DHT22;38420;53.150;6.370;2023-02-20T05:09:23;7.20;99.90
52509;DHT22;38420;53.150;6.370;2023-02-20T05:11:49;7.40;99.90
52509;DHT22;38420;53.150;6.370;2023-02-20T05:14:14;6.80;99.90
52509;DHT22;38420;53.150;6.370;2023-02-20T05:16:41;7.30;99.90
52509;DHT22;38420;53.150;6.370;2023-02-20T05:19:07;7.40;99.90
52509;DHT22;38420;53.150;6.370;2023-02-20T05:21:34;6.70;99.90
52509;DHT22;38420;53.150;6.370;2023-02-20T05:24:19;7.10;99.90
52509;DHT22;38420;53.150;6.370;2023-02-20T05:26:44;6.60;99.90
52509;DHT22;38420;53.150;6.370;2023-02-20T05:29:10;6.60;99.90
52509;DHT22;38420;53.150;6.370;2023-02-20T05:31:40;7.10;99.90
52509;DHT22;38420;53.150;6.370;2023-02-20T05:34:06;7.10;99.90
52509;DHT22;38420;53.150;6.370;2023-02-20T05:36:32;6.70;99.90
52509;DHT22;38420;53.150;6.370;2023-02-20T05:38:57;7.60;99.90
52509;DHT22;38420;53.150;6.370;2023-02-20T05:41:23;7.70;99.90
52509;DHT22;38420;53.150;6.370;2023-02-20T05:43:48;6.90;99.90
52509;DHT22;38420;53.150;6.370;2023-02-20T05:46:15;7.80;99.90
52509;DHT22;38420;53.150;6.370;2023-02-20T05:48:41;7.20;99.90
52509;DHT22;38420;53.150;6.370;2023-02-20T05:51:07;7.60;99.90
52509;DHT22;38420;53.150;6.370;2023-02-20T05:53:33;6.90;99.90
52509;DHT22;38420;53.150;6.370;2023-02-20T05:55:58;7.90;99.90
52509;DHT22;38420;53.150;6.370;2023-02-20T05:58:24;7.90;99.90
52509;DHT22;38420;53.150;6.370;2023-02-20T06:00:50;7.30;99.90
52509;DHT22;38420;53.150;6.370;2023-02-20T06:03:17;7.20;99.90
52509;DHT22;38420;53.150;6.370;2023-02-20T06:05:43;8.50;99.90
52509;DHT22;38420;53.150;6.370;2023-02-20T06:08:09;7.50;99.90
52509;DHT22;38420;53.150;6.370;2023-02-20T06:10:35;8.00;99.90
52509;DHT22;38420;53.150;6.370;2023-02-20T06:13:01;7.30;99.90
52509;DHT22;38420;53.150;6.370;2023-02-20T06:15:26;7.40;99.90
52509;DHT22;38420;53.150;6.370;2023-02-20T06:17:52;7.00;99.90
52509;DHT22;38420;53.150;6.370;2023-02-20T06:20:18;8.00;99.90
52509;DHT22;38420;53.150;6.370;2023-02-20T06:22:47;7.20;99.90
52509;DHT22;38420;53.150;6.370;2023-02-20T06:25:12;7.40;99.90
52509;DHT22;38420;53.150;6.370;2023-02-20T06:27:38;7.50;99.90
52509;DHT22;38420;53.150;6.370;2023-02-20T06:30:04;7.80;99.90
52509;DHT22;38420;53.150;6.370;2023-02-20T06:32:30;7.90;99.90
52509;DHT22;38420;53.150;6.370;2023-02-20T06:34:56;8.10;99.90
52509;DHT22;38420;53.150;6.370;2023-02-20T06:37:21;7.80;99.90
52509;DHT22;38420;53.150;6.370;2023-02-20T06:39:47;7.10;99.90
52509;DHT22;38420;53.150;6.370;2023-02-20T06:42:14;7.40;99.90
52509;DHT22;38420;53.150;6.370;2023-02-20T06:44:40;7.20;99.90
52509;DHT22;38420;53.150;6.370;2023-02-20T06:47:06;7.50;99.90
52509;DHT22;38420;53.150;6.370;2023-02-20T06:49:37;7.50;99.90
52509;DHT22;38420;53.150;6.370;2023-02-20T06:52:04;8.00;99.90
52509;DHT22;38420;53.150;6.370;2023-02-20T06:54:30;7.40;99.90
52509;DHT22;38420;53.150;6.370;2023-02-20T06:56:56;8.00;99.90
52509;DHT22;38420;53.150;6.370;2023-02-20T06:59:22;7.30;99.90
52509;DHT22;38420;53.150;6.370;2023-02-20T07:01:48;7.10;99.90
52509;DHT22;38420;53.150;6.370;2023-02-20T07:04:20;7.40;99.90
52509;DHT22;38420;53.150;6.370;2023-02-20T07:06:46;7.20;99.90
52509;DHT22;38420;53.150;6.370;2023-02-20T07:09:12;7.40;99.90
52509;DHT22;38420;53.150;6.370;2023-02-20T07:11:38;8.10;99.90
52509;DHT22;38420;53.150;6.370;2023-02-20T07:14:04;7.50;99.90
52509;DHT22;38420;53.150;6.370;2023-02-20T07:16:29;7.40;99.90
52509;DHT22;38420;53.150;6.370;2023-02-20T07:18:56;7.50;99.90
52509;DHT22;38420;53.150;6.370;2023-02-20T07:21:22;7.50;99.90
52509;DHT22;38420;53.150;6.370;2023-02-20T07:23:47;7.40;99.90
52509;DHT22;38420;53.150;6.370;2023-02-20T07:26:31;7.90;99.90
52509;DHT22;38420;53.150;6.370;2023-02-20T07:28:57;7.60;99.90
52509;DHT22;38420;53.150;6.370;2023-02-20T07:31:25;7.80;99.90
52509;DHT22;38420;53.150;6.370;2023-02-20T07:33:51;8.00;99.90
52509;DHT22;38420;53.150;6.370;2023-02-20T07:36:17;7.90;99.90
52509;DHT22;38420;53.150;6.370;2023-02-20T07:38:42;7.90;99.90
52509;DHT22;38420;53.150;6.370;2023-02-20T07:41:08;8.20;99.90
52509;DHT22;38420;53.150;6.370;2023-02-20T07:43:34;7.60;99.90
52509;DHT22;38420;53.150;6.370;2023-02-20T07:46:00;7.70;99.90
52509;DHT22;38420;53.150;6.370;2023-02-20T07:48:26;7.40;99.90
52509;DHT22;38420;53.150;6.370;2023-02-20T07:50:52;8.00;99.90
52509;DHT22;38420;53.150;6.370;2023-02-20T07:53:18;8.20;99.90
52509;DHT22;38420;53.150;6.370;2023-02-20T07:55:44;7.50;99.90
52509;DHT22;38420;53.150;6.370;2023-02-20T07:58:10;7.80;99.90
52509;DHT22;38420;53.150;6.370;2023-02-20T08:00:35;7.50;99.90
52509;DHT22;38420;53.150;6.370;2023-02-20T08:03:02;8.30;99.90
52509;DHT22;38420;53.150;6.370;2023-02-20T08:05:27;8.30;99.90
52509;DHT22;38420;53.150;6.370;2023-02-20T08:07:54;8.20;99.90
52509;DHT22;38420;53.150;6.370;2023-02-20T08:10:23;7.90;99.90
52509;DHT22;38420;53.150;6.370;2023-02-20T08:12:49;8.30;99.90
52509;DHT22;38420;53.150;6.370;2023-02-20T08:15:17;8.50;99.90
52509;DHT22;38420;53.150;6.370;2023-02-20T08:17:43;8.40;99.90
52509;DHT22;38420;53.150;6.370;2023-02-20T08:20:10;7.60;99.90
52509;DHT22;38420;53.150;6.370;2023-02-20T08:22:36;8.00;99.90
52509;DHT22;38420;53.150;6.370;2023-02-20T08:25:02;8.30;99.90
52509;DHT22;38420;53.150;6.370;2023-02-20T08:27:29;7.70;99.90
52509;DHT22;38420;53.150;6.370;2023-02-20T08:29:55;7.70;99.90
52509;DHT22;38420;53.150;6.370;2023-02-20T08:32:20;8.40;99.90
52509;DHT22;38420;53.150;6.370;2023-02-20T08:34:46;7.80;99.90
52509;DHT22;38420;53.150;6.370;2023-02-20T08:37:12;8.50;99.90
52509;DHT22;38420;53.150;6.370;2023-02-20T08:39:37;7.80;99.90
52509;DHT22;38420;53.150;6.370;2023-02-20T08:42:03;7.70;99.90
52509;DHT22;38420;53.150;6.370;2023-02-20T08:44:29;8.60;99.90
52509;DHT22;38420;53.150;6.370;2023-02-20T08:46:54;7.90;99.90
52509;DHT22;38420;53.150;6.370;2023-02-20T08:49:20;8.40;99.90
52509;DHT22;38420;53.150;6.370;2023-02-20T08:51:47;8.60;99.90
52509;DHT22;38420;53.150;6.370;2023-02-20T08:54:14;8.20;99.90
52509;DHT22;38420;53.150;6.370;2023-02-20T08:56:43;8.40;99.90
52509;DHT22;38420;53.150;6.370;2023-02-20T08:59:09;8.70;99.90
52509;DHT22;38420;53.150;6.370;2023-02-20T09:01:35;8.10;99.90
52509;DHT22;38420;53.150;6.370;2023-02-20T09:04:00;7.90;99.90
52509;DHT22;38420;53.150;6.370;2023-02-20T09:06:27;8.20;99.90
52509;DHT22;38420;53.150;6.370;2023-02-20T09:08:54;8.00;99.90
52509;DHT22;38420;53.150;6.370;2023-02-20T09:11:20;8.70;99.90
52509;DHT22;38420;53.150;6.370;2023-02-20T09:13:47;8.60;99.90
52509;DHT22;38420;53.150;6.370;2023-02-20T09:16:21;8.60;99.90
52509;DHT22;38420;53.150;6.370;2023-02-20T09:18:47;8.30;99.90
52509;DHT22;38420;53.150;6.370;2023-02-20T09:21:15;9.00;99.90
52509;DHT22;38420;53.150;6.370;2023-02-20T09:23:41;8.50;99.90
52509;DHT22;38420;53.150;6.370;2023-02-20T09:26:07;8.40;99.90
52509;DHT22;38420;53.150;6.370;2023-02-20T09:28:33;8.70;99.90
52509;DHT22;38420;53.150;6.370;2023-02-20T09:30:59;8.80;99.90
52509;DHT22;38420;53.150;6.370;2023-02-20T09:33:26;8.20;99.90
52509;DHT22;38420;53.150;6.370;2023-02-20T09:35:52;8.30;99.90
52509;DHT22;38420;53.150;6.370;2023-02-20T09:38:20;8.30;99.90
52509;DHT22;38420;53.150;6.370;2023-02-20T09:40:49;8.70;99.90
52509;DHT22;38420;53.150;6.370;2023-02-20T09:46:18;8.40;99.90
52509;DHT22;38420;53.150;6.370;2023-02-20T09:51:28;8.90;99.90
52509;DHT22;38420;53.150;6.370;2023-02-20T09:54:02;8.30;99.90
52509;DHT22;38420;53.150;6.370;2023-02-20T09:56:36;8.50;99.90
52509;DHT22;38420;53.150;6.370;2023-02-20T10:04:39;8.50;99.90
52509;DHT22;38420;53.150;6.370;2023-02-20T10:09:53;9.00;99.90
52509;DHT22;38420;53.150;6.370;2023-02-20T10:17:46;9.00;99.90
52509;DHT22;38420;53.150;6.370;2023-02-20T10:20:30;8.80;99.90
52509;DHT22;38420;53.150;6.370;2023-02-20T10:23:20;9.10;99.90
52509;DHT22;38420;53.150;6.370;2023-02-20T10:25:59;8.30;99.90
52509;DHT22;38420;53.150;6.370;2023-02-20T10:28:26;8.40;99.90
52509;DHT22;38420;53.150;6.370;2023-02-20T10:33:35;8.80;99.90
52509;DHT22;38420;53.150;6.370;2023-02-20T10:36:11;9.20;99.90
52509;DHT22;38420;53.150;6.370;2023-02-20T10:38:48;8.60;99.90
52509;DHT22;38420;53.150;6.370;2023-02-20T10:44:04;9.20;99.90
52509;DHT22;38420;53.150;6.370;2023-02-20T10:49:14;8.60;99.90
52509;DHT22;38420;53.150;6.370;2023-02-20T10:51:43;9.40;99.90
52509;DHT22;38420;53.150;6.370;2023-02-20T10:54:15;8.90;99.90
52509;DHT22;38420;53.150;6.370;2023-02-20T11:00:00;8.90;99.90
52509;DHT22;38420;53.150;6.370;2023-02-20T11:02:33;9.10;99.90
52509;DHT22;38420;53.150;6.370;2023-02-20T11:05:07;9.40;99.90
52509;DHT22;38420;53.150;6.370;2023-02-20T11:07:33;9.20;99.90
52509;DHT22;38420;53.150;6.370;2023-02-20T11:09:59;9.30;99.90
52509;DHT22;38420;53.150;6.370;2023-02-20T11:12:37;9.10;99.90
52509;DHT22;38420;53.150;6.370;2023-02-20T11:15:12;9.40;99.90
52509;DHT22;38420;53.150;6.370;2023-02-20T11:17:39;9.10;99.90
52509;DHT22;38420;53.150;6.370;2023-02-20T11:23:01;9.00;99.90
52509;DHT22;38420;53.150;6.370;2023-02-20T11:25:35;9.60;99.90
52509;DHT22;38420;53.150;6.370;2023-02-20T11:28:22;9.20;99.90
52509;DHT22;38420;53.150;6.370;2023-02-20T11:31:04;9.20;99.90
52509;DHT22;38420;53.150;6.370;2023-02-20T11:33:35;9.30;99.90
52509;DHT22;38420;53.150;6.370;2023-02-20T11:36:16;9.00;99.90
52509;DHT22;38420;53.150;6.370;2023-02-20T11:38:43;9.40;99.90
52509;DHT22;38420;53.150;6.370;2023-02-20T11:41:25;9.70;99.90
52509;DHT22;38420;53.150;6.370;2023-02-20T11:44:09;9.40;99.90
52509;DHT22;38420;53.150;6.370;2023-02-20T11:46:40;9.20;99.90
52509;DHT22;38420;53.150;6.370;2023-02-20T11:49:08;9.20;99.90
52509;DHT22;38420;53.150;6.370;2023-02-20T11:51:41;9.60;99.90
52509;DHT22;38420;53.150;6.370;2023-02-20T12:04:43;9.40;99.90
52509;DHT22;38420;53.150;6.370;2023-02-20T12:09:49;9.90;99.90
52509;DHT22;38420;53.150;6.370;2023-02-20T12:12:17;9.70;99.90
52509;DHT22;38420;53.150;6.370;2023-02-20T12:14:51;9.30;99.90
52509;DHT22;38420;53.150;6.370;2023-02-20T12:17:34;9.80;99.90
52509;DHT22;38420;53.150;6.370;2023-02-20T12:22:44;10.00;99.90
52509;DHT22;38420;53.150;6.370;2023-02-20T12:28:21;9.40;99.90
52509;DHT22;38420;53.150;6.370;2023-02-20T12:34:00;9.60;99.90
52509;DHT22;38420;53.150;6.370;2023-02-20T12:36:31;9.40;99.90
52509;DHT22;38420;53.150;6.370;2023-02-20T12:47:00;9.50;99.90
52509;DHT22;38420;53.150;6.370;2023-02-20T12:49:50;10.00;99.90
52509;DHT22;38420;53.150;6.370;2023-02-20T12:52:48;10.10;99.90
52509;DHT22;38420;53.150;6.370;2023-02-20T13:00:57;9.60;99.90
52509;DHT22;38420;53.150;6.370;2023-02-20T13:06:05;9.90;99.90
52509;DHT22;38420;53.150;6.370;2023-02-20T13:08:57;9.70;99.90
52509;DHT22;38420;53.150;6.370;2023-02-20T13:11:24;10.00;99.90
52509;DHT22;38420;53.150;6.370;2023-02-20T13:19:31;10.20;99.90
52509;DHT22;38420;53.150;6.370;2023-02-20T13:21:59;9.80;99.90
52509;DHT22;38420;53.150;6.370;2023-02-20T13:24:28;10.40;99.90
52509;DHT22;38420;53.150;6.370;2023-02-20T13:27:00;9.90;99.90
52509;DHT22;38420;53.150;6.370;2023-02-20T13:29:33;10.20;99.90
52509;DHT22;38420;53.150;6.370;2023-02-20T13:32:26;10.40;99.90
52509;DHT22;38420;53.150;6.370;2023-02-20T13:34:53;10.20;99.90
52509;DHT22;38420;53.150;6.370;2023-02-20T13:45:46;10.50;99.90
52509;DHT22;38420;53.150;6.370;2023-02-20T13:53:41;10.20;99.90
52509;DHT22;38420;53.150;6.370;2023-02-20T13:58:47;10.00;99.90
52509;DHT22;38420;53.150;6.370;2023-02-20T14:01:13;10.00;99.90
52509;DHT22;38420;53.150;6.370;2023-02-20T14:03:39;9.90;99.90
52509;DHT22;38420;53.150;6.370;2023-02-20T14:08:40;10.40;99.90
52509;DHT22;38420;53.150;6.370;2023-02-20T14:11:11;10.10;99.90
52509;DHT22;38420;53.150;6.370;2023-02-20T14:13:39;10.10;99.90
52509;DHT22;38420;53.150;6.370;2023-02-20T14:16:27;10.40;99.90
52509;DHT22;38420;53.150;6.370;2023-02-20T14:19:08;10.30;99.90
52509;DHT22;38420;53.150;6.370;2023-02-20T14:21:39;10.10;99.90
52509;DHT22;38420;53.150;6.370;2023-02-20T14:26:42;10.30;99.90
52509;DHT22;38420;53.150;6.370;2023-02-20T14:29:20;10.00;99.90
52509;DHT22;38420;53.150;6.370;2023-02-20T14:31:50;10.40;99.90
52509;DHT22;38420;53.150;6.370;2023-02-20T14:37:02;10.20;99.90
52509;DHT22;38420;53.150;6.370;2023-02-20T14:42:04;10.30;99.90
52509;DHT22;38420;53.150;6.370;2023-02-20T14:44:31;10.30;99.90
52509;DHT22;38420;53.150;6.370;2023-02-20T14:47:09;10.30;99.90
52509;DHT22;38420;53.150;6.370;2023-02-20T14:49:37;10.60;99.90
52509;DHT22;38420;53.150;6.370;2023-02-20T14:54:36;10.60;99.90
52509;DHT22;38420;53.150;6.370;2023-02-20T14:57:02;10.60;99.90
52509;DHT22;38420;53.150;6.370;2023-02-20T14:59:37;10.70;99.90
52509;DHT22;38420;53.150;6.370;2023-02-20T15:02:22;10.40;99.90
52509;DHT22;38420;53.150;6.370;2023-02-20T15:05:03;10.50;99.90
52509;DHT22;38420;53.150;6.370;2023-02-20T15:07:30;10.50;99.90
52509;DHT22;38420;53.150;6.370;2023-02-20T15:09:58;10.60;99.90
52509;DHT22;38420;53.150;6.370;2023-02-20T15:12:37;10.90;99.90
52509;DHT22;38420;53.150;6.370;2023-02-20T15:17:40;10.70;99.90
52509;DHT22;38420;53.150;6.370;2023-02-20T15:20:41;10.90;99.90
52509;DHT22;38420;53.150;6.370;2023-02-20T15:23:32;10.50;99.90
52509;DHT22;38420;53.150;6.370;2023-02-20T15:26:05;10.80;99.90
52509;DHT22;38420;53.150;6.370;2023-02-20T15:28:44;10.50;99.90
52509;DHT22;38420;53.150;6.370;2023-02-20T15:33:56;10.60;99.90
52509;DHT22;38420;53.150;6.370;2023-02-20T15:36:23;10.50;99.90
52509;DHT22;38420;53.150;6.370;2023-02-20T15:38:52;10.50;99.90
52509;DHT22;38420;53.150;6.370;2023-02-20T15:41:18;10.60;99.90
52509;DHT22;38420;53.150;6.370;2023-02-20T15:43:46;10.90;99.90
52509;DHT22;38420;53.150;6.370;2023-02-20T15:46:12;10.60;99.90
52509;DHT22;38420;53.150;6.370;2023-02-20T15:48:39;10.50;99.90
52509;DHT22;38420;53.150;6.370;2023-02-20T15:51:05;10.70;99.90
52509;DHT22;38420;53.150;6.370;2023-02-20T15:53:31;10.50;99.90
52509;DHT22;38420;53.150;6.370;2023-02-20T15:55:58;10.70;99.90
52509;DHT22;38420;53.150;6.370;2023-02-20T15:58:27;10.70;99.90
52509;DHT22;38420;53.150;6.370;2023-02-20T16:00:53;10.80;99.90
52509;DHT22;38420;53.150;6.370;2023-02-20T16:03:24;10.70;99.90
52509;DHT22;38420;53.150;6.370;2023-02-20T16:05:50;10.40;99.90
52509;DHT22;38420;53.150;6.370;2023-02-20T16:08:17;10.70;99.90
52509;DHT22;38420;53.150;6.370;2023-02-20T16:10:42;10.60;99.90
52509;DHT22;38420;53.150;6.370;2023-02-20T16:13:31;10.50;99.90
52509;DHT22;38420;53.150;6.370;2023-02-20T16:15:58;10.70;99.90
52509;DHT22;38420;53.150;6.370;2023-02-20T16:18:23;10.90;99.90
52509;DHT22;38420;53.150;6.370;2023-02-20T16:20:50;10.30;99.90
52509;DHT22;38420;53.150;6.370;2023-02-20T16:23:16;10.20;99.90
52509;DHT22;38420;53.150;6.370;2023-02-20T16:25:42;10.60;99.90
52509;DHT22;38420;53.150;6.370;2023-02-20T16:28:10;10.40;99.90
52509;DHT22;38420;53.150;6.370;2023-02-20T16:30:38;10.40;99.90
52509;DHT22;38420;53.150;6.370;2023-02-20T16:33:14;10.30;99.90
52509;DHT22;38420;53.150;6.370;2023-02-20T16:35:40;10.10;99.90
52509;DHT22;38420;53.150;6.370;2023-02-20T16:38:06;10.20;99.90
52509;DHT22;38420;53.150;6.370;2023-02-20T16:40:31;10.00;99.90
52509;DHT22;38420;53.150;6.370;2023-02-20T16:42:57;10.40;99.90
52509;DHT22;38420;53.150;6.370;2023-02-20T16:45:22;10.00;99.90
52509;DHT22;38420;53.150;6.370;2023-02-20T16:47:50;10.00;99.90
52509;DHT22;38420;53.150;6.370;2023-02-20T16:50:20;10.00;99.90
52509;DHT22;38420;53.150;6.370;2023-02-20T16:52:48;10.20;99.90
52509;DHT22;38420;53.150;6.370;2023-02-20T16:55:28;10.10;99.90
52509;DHT22;38420;53.150;6.370;2023-02-20T16:57:54;9.60;99.90
52509;DHT22;38420;53.150;6.370;2023-02-20T17:00:22;10.10;99.90
52509;DHT22;38420;53.150;6.370;2023-02-20T17:02:50;10.00;99.90
52509;DHT22;38420;53.150;6.370;2023-02-20T17:05:18;9.50;99.90
52509;DHT22;38420;53.150;6.370;2023-02-20T17:07:44;10.00;99.90
52509;DHT22;38420;53.150;6.370;2023-02-20T17:10:09;9.60;99.90
52509;DHT22;38420;53.150;6.370;2023-02-20T17:12:35;9.60;99.90
52509;DHT22;38420;53.150;6.370;2023-02-20T17:15:03;9.70;99.90
52509;DHT22;38420;53.150;6.370;2023-02-20T17:17:29;9.90;99.90
52509;DHT22;38420;53.150;6.370;2023-02-20T17:19:58;9.30;99.90
52509;DHT22;38420;53.150;6.370;2023-02-20T17:22:25;9.40;99.90
52509;DHT22;38420;53.150;6.370;2023-02-20T17:24:51;9.30;99.90
52509;DHT22;38420;53.150;6.370;2023-02-20T17:27:18;9.40;99.90
52509;DHT22;38420;53.150;6.370;2023-02-20T17:29:44;9.30;99.90
52509;DHT22;38420;53.150;6.370;2023-02-20T17:32:11;9.80;99.90
52509;DHT22;38420;53.150;6.370;2023-02-20T17:34:37;9.40;99.90
52509;DHT22;38420;53.150;6.370;2023-02-20T17:37:02;9.20;99.90
52509;DHT22;38420;53.150;6.370;2023-02-20T17:39:28;9.70;99.90
52509;DHT22;38420;53.150;6.370;2023-02-20T17:41:55;9.70;99.90
52509;DHT22;38420;53.150;6.370;2023-02-20T17:44:26;9.20;99.90
52509;DHT22;38420;53.150;6.370;2023-02-20T17:46:53;9.20;99.90
52509;DHT22;38420;53.150;6.370;2023-02-20T17:49:20;9.50;99.90
52509;DHT22;38420;53.150;6.370;2023-02-20T17:51:48;9.70;99.90
52509;DHT22;38420;53.150;6.370;2023-02-20T17:54:14;9.70;99.90
52509;DHT22;38420;53.150;6.370;2023-02-20T17:56:42;9.60;99.90
52509;DHT22;38420;53.150;6.370;2023-02-20T17:59:09;9.00;99.90
52509;DHT22;38420;53.150;6.370;2023-02-20T18:01:35;9.60;99.90
52509;DHT22;38420;53.150;6.370;2023-02-20T18:04:01;9.00;99.90
52509;DHT22;38420;53.150;6.370;2023-02-20T18:06:30;9.50;99.90
52509;DHT22;38420;53.150;6.370;2023-02-20T18:08:56;9.90;99.90
52509;DHT22;38420;53.150;6.370;2023-02-20T18:11:22;9.20;99.90
52509;DHT22;38420;53.150;6.370;2023-02-20T18:13:47;9.70;99.90
52509;DHT22;38420;53.150;6.370;2023-02-20T18:16:13;9.70;99.90
52509;DHT22;38420;53.150;6.370;2023-02-20T18:18:40;9.10;99.90
52509;DHT22;38420;53.150;6.370;2023-02-20T18:21:05;9.20;99.90